createdAt,value
2023-01-20T00:02:34.723Z,4.43
2023-01-20T00:05:07.372Z,4.68
2023-01-20T00:07:40.073Z,4.97
2023-01-20T00:10:12.409Z,4.65
2023-01-20T00:12:45.138Z,5.38
2023-01-20T00:15:17.017Z,4.57
2023-01-20T00:17:49.718Z,4.70
2023-01-20T00:20:21.657Z,4.47
2023-01-20T00:22:54.367Z,4.88
2023-01-20T00:25:26.340Z,5.07
2023-01-20T00:28:01.775Z,5.18
2023-01-20T00:30:34.178Z,5.00
2023-01-20T00:33:09.748Z,4.93
2023-01-20T00:35:42.918Z,5.60
2023-01-20T00:38:16.029Z,10.68
2023-01-20T00:40:55.076Z,5.35
2023-01-20T00:43:27.914Z,4.78
2023-01-20T00:46:00.297Z,4.60
2023-01-20T00:48:33.675Z,4.63
2023-01-20T00:51:07.412Z,4.43
2023-01-20T00:53:40.245Z,5.03
2023-01-20T00:56:12.931Z,5.15
2023-01-20T00:58:45.244Z,4.47
2023-01-20T01:01:18.694Z,4.30
2023-01-20T01:03:54.426Z,4.40
2023-01-20T01:06:27.256Z,4.30
2023-01-20T01:08:59.161Z,4.55
2023-01-20T01:11:31.948Z,4.80
2023-01-20T01:14:03.855Z,4.43
2023-01-20T01:16:37.071Z,5.43
2023-01-20T01:19:09.212Z,4.45
2023-01-20T01:21:41.901Z,4.55
2023-01-20T01:24:13.798Z,4.77
2023-01-20T01:26:47.065Z,3.60
2023-01-20T01:29:18.950Z,4.10
2023-01-20T01:31:51.752Z,4.07
2023-01-20T01:34:23.753Z,3.92
2023-01-20T01:36:56.981Z,3.33
2023-01-20T01:39:28.895Z,3.63
2023-01-20T01:42:01.623Z,3.53
2023-01-20T01:44:38.751Z,3.90
2023-01-20T01:47:11.528Z,4.20
2023-01-20T01:49:43.510Z,3.50
2023-01-20T01:52:16.642Z,3.50
2023-01-20T01:54:49.205Z,4.00
2023-01-20T01:57:22.918Z,4.18
2023-01-20T01:59:55.232Z,4.20
2023-01-20T02:02:27.208Z,3.70
2023-01-20T02:04:59.986Z,3.55
2023-01-20T02:07:33.507Z,3.50
2023-01-20T02:10:06.785Z,3.33
2023-01-20T02:12:39.923Z,3.90
2023-01-20T02:15:13.821Z,3.63
2023-01-20T02:18:24.719Z,3.90
2023-01-20T02:21:39.575Z,4.53
2023-01-20T02:24:50.725Z,3.15
2023-01-20T02:27:46.968Z,4.00
2023-01-20T02:30:41.905Z,3.33
2023-01-20T02:33:32.579Z,3.50
2023-01-20T02:36:12.811Z,3.58
2023-01-20T02:39:03.374Z,3.50
2023-01-20T02:41:53.222Z,3.75
2023-01-20T02:44:39.183Z,3.20
2023-01-20T02:47:36.069Z,3.50
2023-01-20T02:50:33.354Z,3.33
2023-01-20T02:53:07.767Z,3.67
2023-01-20T02:55:47.380Z,3.22
2023-01-20T02:59:07.669Z,2.90
2023-01-20T03:02:05.215Z,3.20
2023-01-20T03:04:46.516Z,2.80
2023-01-20T03:07:22.618Z,2.35
2023-01-20T03:09:58.827Z,2.55
2023-01-20T03:12:47.318Z,2.60
2023-01-20T03:15:25.543Z,2.70
2023-01-20T03:17:58.687Z,2.55
2023-01-20T03:20:31.099Z,2.40
2023-01-20T03:23:04.663Z,2.63
2023-01-20T03:25:37.974Z,2.90
2023-01-20T03:28:10.667Z,2.95
2023-01-20T03:30:42.653Z,3.15
2023-01-20T03:33:16.669Z,3.03
2023-01-20T03:35:49.588Z,3.03
2023-01-20T03:38:22.291Z,2.60
2023-01-20T03:41:04.559Z,2.70
2023-01-20T03:44:07.000Z,2.30
2023-01-20T03:46:51.091Z,3.00
2023-01-20T03:49:46.684Z,2.80
2023-01-20T03:52:47.508Z,2.70
2023-01-20T03:55:23.521Z,2.30
2023-01-20T03:58:06.217Z,2.60
2023-01-20T04:00:44.157Z,2.50
2023-01-20T04:03:23.434Z,2.15
2023-01-20T04:05:58.328Z,2.10
2023-01-20T04:08:45.449Z,2.58
2023-01-20T04:11:17.908Z,2.38
2023-01-20T04:13:50.842Z,2.22
2023-01-20T04:16:25.730Z,2.40
2023-01-20T04:18:57.665Z,2.60
2023-01-20T04:21:34.901Z,2.30
2023-01-20T04:24:25.593Z,2.70
2023-01-20T04:26:57.476Z,2.45
2023-01-20T04:29:30.183Z,2.33
2023-01-20T04:32:03.319Z,2.60
2023-01-20T04:34:36.055Z,2.38
2023-01-20T04:37:07.921Z,2.35
2023-01-20T04:39:40.242Z,2.55
2023-01-20T04:42:12.733Z,2.40
2023-01-20T04:44:45.154Z,2.00
2023-01-20T04:47:17.884Z,2.22
2023-01-20T04:49:50.097Z,2.30
2023-01-20T04:52:22.773Z,2.30
2023-01-20T04:54:54.640Z,2.55
2023-01-20T04:57:29.358Z,2.13
2023-01-20T05:00:01.370Z,2.35
2023-01-20T05:02:35.818Z,3.13
2023-01-20T05:05:08.740Z,2.80
2023-01-20T05:07:40.580Z,2.92
2023-01-20T05:10:13.433Z,3.33
2023-01-20T05:12:46.170Z,5.13
2023-01-20T05:15:18.438Z,5.55
2023-01-20T05:17:51.173Z,8.63
2023-01-20T05:20:23.143Z,9.52
2023-01-20T05:22:56.118Z,11.00
2023-01-20T05:25:27.978Z,10.77
2023-01-20T05:28:01.099Z,8.55
2023-01-20T05:30:33.152Z,7.72
2023-01-20T05:33:05.853Z,7.78
2023-01-20T05:35:39.215Z,7.80
2023-01-20T05:38:11.055Z,8.77
2023-01-20T05:40:44.260Z,7.75
2023-01-20T05:43:16.141Z,5.95
2023-01-20T05:45:48.866Z,5.88
2023-01-20T05:48:22.234Z,4.60
2023-01-20T05:50:54.102Z,4.60
2023-01-20T05:53:26.872Z,5.38
2023-01-20T05:56:04.091Z,6.25
2023-01-20T05:58:36.877Z,7.05
2023-01-20T06:01:12.754Z,6.60
2023-01-20T06:03:45.069Z,6.07
2023-01-20T06:06:18.358Z,6.05
2023-01-20T06:08:53.256Z,7.40
2023-01-20T06:11:26.045Z,6.85
2023-01-20T06:13:58.468Z,5.40
2023-01-20T06:16:30.325Z,5.28
2023-01-20T06:19:03.059Z,5.20
2023-01-20T06:21:34.900Z,4.28
2023-01-20T06:24:08.269Z,4.70
2023-01-20T06:26:40.758Z,3.53
2023-01-20T06:29:13.484Z,3.65
2023-01-20T06:31:46.054Z,3.40
2023-01-20T06:34:17.923Z,3.25
2023-01-20T06:36:50.658Z,3.92
2023-01-20T06:39:22.735Z,3.30
2023-01-20T06:41:59.378Z,5.53
2023-01-20T06:44:31.725Z,4.22
2023-01-20T06:47:04.689Z,3.75
2023-01-20T06:49:37.398Z,3.30
2023-01-20T06:52:10.260Z,3.13
2023-01-20T06:54:42.132Z,3.40
2023-01-20T06:57:14.867Z,3.97
2023-01-20T06:59:46.811Z,3.00
2023-01-20T07:02:19.678Z,3.92
2023-01-20T07:04:54.798Z,3.37
2023-01-20T07:07:27.407Z,3.75
2023-01-20T07:09:59.705Z,4.13
2023-01-20T07:12:31.526Z,3.80
2023-01-20T07:15:04.755Z,3.45
2023-01-20T07:17:36.626Z,3.13
2023-01-20T07:20:10.546Z,3.45
2023-01-20T07:22:42.781Z,3.83
2023-01-20T07:25:16.114Z,3.85
2023-01-20T07:27:48.660Z,4.30
2023-01-20T07:30:21.362Z,3.50
2023-01-20T07:32:53.891Z,3.80
2023-01-20T07:35:26.658Z,3.78
2023-01-20T07:37:58.919Z,3.80
2023-01-20T07:40:31.861Z,3.53
2023-01-20T07:43:04.334Z,3.53
2023-01-20T07:45:37.128Z,4.15
2023-01-20T07:48:09.943Z,3.70
2023-01-20T07:50:42.708Z,3.95
2023-01-20T07:53:14.550Z,3.83
2023-01-20T07:55:47.296Z,3.50
2023-01-20T07:58:19.158Z,3.50
2023-01-20T08:00:51.954Z,3.65
2023-01-20T08:03:27.422Z,3.50
2023-01-20T08:06:03.668Z,3.53
2023-01-20T08:08:36.735Z,3.80
2023-01-20T08:11:11.343Z,3.85
2023-01-20T08:13:47.668Z,4.10
2023-01-20T08:16:20.539Z,4.03
2023-01-20T08:18:55.224Z,4.22
2023-01-20T08:21:31.055Z,3.33
2023-01-20T08:24:07.069Z,3.75
2023-01-20T08:26:39.493Z,4.30
2023-01-20T08:29:12.189Z,3.78
2023-01-20T08:31:44.187Z,4.47
2023-01-20T08:34:19.090Z,4.27
2023-01-20T08:36:54.029Z,3.75
2023-01-20T08:39:26.431Z,4.28
2023-01-20T08:41:58.275Z,4.03
2023-01-20T08:44:31.429Z,3.80
2023-01-20T08:47:03.602Z,3.37
2023-01-20T08:49:36.365Z,3.70
2023-01-20T08:52:09.067Z,3.60
2023-01-20T08:57:36.448Z,3.50
2023-01-20T09:00:13.411Z,3.50
2023-01-20T09:02:45.784Z,3.55
2023-01-20T09:05:18.284Z,4.20
2023-01-20T09:07:50.149Z,4.20
2023-01-20T09:10:22.870Z,3.33
2023-01-20T09:12:55.325Z,4.20
2023-01-20T09:15:28.454Z,3.70
2023-01-20T09:18:00.367Z,3.58
2023-01-20T09:20:33.062Z,3.33
2023-01-20T09:23:05.784Z,3.47
2023-01-20T09:25:37.813Z,3.27
2023-01-20T09:28:10.550Z,3.58
2023-01-20T09:30:43.374Z,3.83
2023-01-20T09:33:16.204Z,3.20
2023-01-20T09:35:55.449Z,3.70
2023-01-20T09:38:49.162Z,3.50
2023-01-20T09:42:09.128Z,3.40
2023-01-20T09:44:56.571Z,3.47
2023-01-20T09:47:37.392Z,3.40
2023-01-20T09:50:57.120Z,4.18
2023-01-20T09:54:01.658Z,4.50
2023-01-20T09:56:41.659Z,4.13
2023-01-20T09:59:27.924Z,4.15
2023-01-20T10:02:05.728Z,4.13
2023-01-20T10:08:05.454Z,3.73
2023-01-20T10:10:48.092Z,3.70
2023-01-20T10:14:02.157Z,3.80
2023-01-20T10:16:53.669Z,3.75
2023-01-20T10:19:37.523Z,3.90
2023-01-20T10:22:33.753Z,3.70
2023-01-20T10:25:28.794Z,3.28
2023-01-20T10:28:27.417Z,4.18
2023-01-20T10:31:04.845Z,3.20
2023-01-20T10:33:45.333Z,3.83
2023-01-20T10:36:28.144Z,3.20
2023-01-20T10:39:11.961Z,3.40
2023-01-20T10:41:51.264Z,3.83
2023-01-20T10:44:23.737Z,3.50
2023-01-20T10:47:26.190Z,3.83
2023-01-20T10:50:35.303Z,3.67
2023-01-20T10:53:36.215Z,3.80
2023-01-20T10:56:28.964Z,4.80
2023-01-20T10:59:17.126Z,6.70
2023-01-20T11:02:02.421Z,6.75
2023-01-20T11:04:43.492Z,7.47
2023-01-20T11:07:19.562Z,12.15
2023-01-20T11:09:51.898Z,14.98
2023-01-20T11:12:29.171Z,13.95
2023-01-20T11:15:01.435Z,13.80
2023-01-20T11:17:34.401Z,12.43
2023-01-20T11:20:07.001Z,12.45
2023-01-20T11:22:39.634Z,12.80
2023-01-20T11:25:26.436Z,12.25
2023-01-20T11:27:59.141Z,12.32
2023-01-20T11:30:34.453Z,12.07
2023-01-20T11:33:28.432Z,12.27
2023-01-20T11:36:19.195Z,12.88
2023-01-20T11:38:52.487Z,12.13
2023-01-20T11:41:31.572Z,12.85
2023-01-20T11:44:06.862Z,11.73
2023-01-20T11:46:39.822Z,11.60
2023-01-20T11:49:22.784Z,10.90
2023-01-20T11:51:57.811Z,10.90
2023-01-20T11:54:30.691Z,11.55
2023-01-20T11:57:08.240Z,11.87
2023-01-20T11:59:49.402Z,11.25
2023-01-20T12:02:25.561Z,12.90
2023-01-20T12:05:10.317Z,11.23
2023-01-20T12:07:48.239Z,10.63
2023-01-20T12:10:29.594Z,11.17
2023-01-20T12:13:20.121Z,12.40
2023-01-20T12:15:56.659Z,13.18
2023-01-20T12:18:38.856Z,12.82
2023-01-20T12:21:18.459Z,12.98
2023-01-20T12:24:09.770Z,12.53
2023-01-20T12:26:42.564Z,12.68
2023-01-20T12:29:27.615Z,11.23
2023-01-20T12:32:01.415Z,12.90
2023-01-20T12:34:34.395Z,12.02
2023-01-20T12:37:29.759Z,11.80
2023-01-20T12:40:22.360Z,11.70
2023-01-20T12:43:28.800Z,11.52
2023-01-20T12:46:32.720Z,11.60
2023-01-20T12:49:23.443Z,12.95
2023-01-20T12:52:18.276Z,13.20
2023-01-20T12:55:03.289Z,12.05
2023-01-20T12:57:52.431Z,13.88
2023-01-20T13:00:39.750Z,12.43
2023-01-20T13:03:41.915Z,13.20
2023-01-20T13:07:16.974Z,13.53
2023-01-20T13:10:06.922Z,12.75
2023-01-20T13:13:12.657Z,13.73
2023-01-20T13:16:17.376Z,13.65
2023-01-20T13:19:08.814Z,13.10
2023-01-20T13:21:42.500Z,12.47
2023-01-20T13:24:24.634Z,12.95
2023-01-20T13:27:01.392Z,13.60
2023-01-20T13:29:36.918Z,13.48
2023-01-20T13:32:37.462Z,12.48
2023-01-20T13:35:18.416Z,12.53
2023-01-20T13:37:57.007Z,10.45
2023-01-20T13:40:37.965Z,9.82
2023-01-20T13:43:42.744Z,9.00
2023-01-20T13:46:15.804Z,9.00
2023-01-20T13:49:14.183Z,9.40
2023-01-20T13:51:48.000Z,10.02
2023-01-20T13:54:23.964Z,9.73
2023-01-20T13:57:23.176Z,8.63
2023-01-20T13:59:56.705Z,10.70
2023-01-20T14:02:36.170Z,11.27
2023-01-20T14:05:24.587Z,9.73
2023-01-20T14:07:58.085Z,7.65
2023-01-20T14:10:30.047Z,9.85
2023-01-20T14:13:08.728Z,10.77
2023-01-20T14:15:40.896Z,10.40
2023-01-20T14:18:18.008Z,10.73
2023-01-20T14:21:23.402Z,10.85
2023-01-20T14:23:56.556Z,11.10
2023-01-20T14:26:30.888Z,10.52
2023-01-20T14:29:03.779Z,11.33
2023-01-20T14:31:44.060Z,11.18
2023-01-20T14:34:33.042Z,11.40
2023-01-20T14:37:25.857Z,11.02
2023-01-20T14:40:01.856Z,9.07
2023-01-20T14:42:36.477Z,7.63
2023-01-20T14:45:19.991Z,7.55
2023-01-20T14:47:54.273Z,6.63
2023-01-20T14:50:26.965Z,6.57
2023-01-20T14:52:59.282Z,6.53
2023-01-20T14:55:43.519Z,6.80
2023-01-20T14:58:17.392Z,7.55
2023-01-20T15:00:50.350Z,7.00
2023-01-20T15:03:28.759Z,6.82
2023-01-20T15:06:18.153Z,7.45
2023-01-20T15:09:05.596Z,7.10
2023-01-20T15:11:39.233Z,7.68
2023-01-20T15:14:13.016Z,8.13
2023-01-20T15:16:49.388Z,7.40
2023-01-20T15:19:33.441Z,8.07
2023-01-20T15:22:20.253Z,8.17
2023-01-20T15:24:53.788Z,8.15
2023-01-20T15:27:34.446Z,7.75
2023-01-20T15:30:27.213Z,8.38
2023-01-20T15:33:00.810Z,8.52
2023-01-20T15:35:33.443Z,8.43
2023-01-20T15:38:12.577Z,9.18
2023-01-20T15:40:44.469Z,9.90
2023-01-20T15:43:19.136Z,9.98
2023-01-20T15:45:51.068Z,9.95
2023-01-20T15:48:24.957Z,9.17
2023-01-20T15:50:57.285Z,9.30
2023-01-20T15:53:29.920Z,9.65
2023-01-20T15:56:02.307Z,8.90
2023-01-20T15:58:37.622Z,9.50
2023-01-20T16:01:13.774Z,9.27
2023-01-20T16:03:46.739Z,9.32
2023-01-20T16:06:20.289Z,8.95
2023-01-20T16:08:52.840Z,8.07
2023-01-20T16:11:25.118Z,9.10
2023-01-20T16:13:59.187Z,8.37
2023-01-20T16:16:35.950Z,8.88
2023-01-20T16:19:10.310Z,9.07
2023-01-20T16:21:45.212Z,8.30
2023-01-20T16:24:18.087Z,8.57
2023-01-20T16:26:49.949Z,8.47
2023-01-20T16:29:23.028Z,8.40
2023-01-20T16:31:54.917Z,8.45
2023-01-20T16:34:27.607Z,8.15
2023-01-20T16:36:59.506Z,8.02
2023-01-20T16:39:33.194Z,6.87
2023-01-20T16:42:05.533Z,7.32
2023-01-20T16:44:39.150Z,7.57
2023-01-20T16:47:11.016Z,7.00
2023-01-20T16:49:43.718Z,7.03
2023-01-20T16:52:15.588Z,6.73
2023-01-20T16:54:48.140Z,6.97
2023-01-20T16:57:19.980Z,6.80
2023-01-20T16:59:52.513Z,7.35
2023-01-20T17:02:24.463Z,7.30
2023-01-20T17:04:57.485Z,7.07
2023-01-20T17:07:29.399Z,6.32
2023-01-20T17:10:02.244Z,5.95
2023-01-20T17:12:34.242Z,5.85
2023-01-20T17:15:07.635Z,6.32
2023-01-20T17:17:39.997Z,6.50
2023-01-20T17:20:12.053Z,5.32
2023-01-20T17:22:45.217Z,6.35
2023-01-20T17:25:17.879Z,6.40
2023-01-20T17:27:50.295Z,6.72
2023-01-20T17:30:23.973Z,5.43
2023-01-20T17:32:58.607Z,6.07
2023-01-20T17:35:30.451Z,6.20
2023-01-20T17:38:02.967Z,6.30
2023-01-20T17:40:34.851Z,5.80
2023-01-20T17:43:07.401Z,5.67
2023-01-20T17:45:39.351Z,9.05
2023-01-20T17:48:12.336Z,7.25
2023-01-20T17:50:44.305Z,6.57
2023-01-20T17:53:16.897Z,7.50
2023-01-20T17:55:51.883Z,5.93
2023-01-20T17:58:25.926Z,6.85
2023-01-20T18:00:58.206Z,6.22
2023-01-20T18:03:30.564Z,7.90
2023-01-20T18:06:02.483Z,7.15
2023-01-20T18:08:35.553Z,7.10
2023-01-20T18:11:11.549Z,6.72
2023-01-20T18:13:46.928Z,7.25
2023-01-20T18:16:21.055Z,6.72
2023-01-20T18:18:58.733Z,6.68
2023-01-20T18:21:41.689Z,7.83
2023-01-20T18:24:15.040Z,6.63
2023-01-20T18:26:47.266Z,6.97
2023-01-20T18:29:19.195Z,6.53
2023-01-20T18:31:51.877Z,5.85
2023-01-20T18:34:24.174Z,6.57
2023-01-20T18:36:56.798Z,7.50
2023-01-20T18:39:29.493Z,6.25
2023-01-20T18:42:01.844Z,5.85
2023-01-20T18:44:33.689Z,5.60
2023-01-20T18:47:06.169Z,6.40
2023-01-20T18:49:38.252Z,5.80
2023-01-20T18:52:11.978Z,6.50
2023-01-20T18:54:43.854Z,6.88
2023-01-20T18:57:16.601Z,7.55
2023-01-20T18:59:48.918Z,6.10
2023-01-20T19:02:21.676Z,6.13
2023-01-20T19:04:54.047Z,6.43
2023-01-20T19:07:26.780Z,6.32
2023-01-20T19:09:59.133Z,6.22
2023-01-20T19:12:31.424Z,5.90
2023-01-20T19:15:04.429Z,6.40
2023-01-20T19:17:36.546Z,6.28
2023-01-20T19:20:11.279Z,5.90
2023-01-20T19:22:43.243Z,7.18
2023-01-20T19:25:16.347Z,6.97
2023-01-20T19:27:48.281Z,7.40
2023-01-20T19:30:21.339Z,7.65
2023-01-20T19:32:53.235Z,6.50
2023-01-20T19:35:25.952Z,7.22
2023-01-20T19:37:58.249Z,6.27
2023-01-20T19:40:30.135Z,6.15
2023-01-20T19:43:02.841Z,6.22
2023-01-20T19:45:45.703Z,5.88
2023-01-20T19:48:18.194Z,5.60
2023-01-20T19:50:50.906Z,6.40
2023-01-20T19:53:23.280Z,5.53
2023-01-20T19:56:05.791Z,6.80
2023-01-20T19:58:39.448Z,7.35
2023-01-20T20:01:21.273Z,7.72
2023-01-20T20:03:57.332Z,6.23
2023-01-20T20:06:36.561Z,6.10
2023-01-20T20:09:17.572Z,5.63
2023-01-20T20:11:50.151Z,5.45
2023-01-20T20:14:23.502Z,4.88
2023-01-20T20:16:56.004Z,5.70
2023-01-20T20:19:28.548Z,5.25
2023-01-20T20:22:00.397Z,4.80
2023-01-20T20:24:33.331Z,5.40
2023-01-20T20:27:05.349Z,5.18
2023-01-20T20:29:38.477Z,5.10
2023-01-20T20:32:10.596Z,5.43
2023-01-20T20:34:43.282Z,5.60
2023-01-20T20:37:15.128Z,5.15
2023-01-20T20:39:46.990Z,5.88
2023-01-20T20:42:19.251Z,5.27
2023-01-20T20:44:52.001Z,5.47
2023-01-20T20:47:27.336Z,6.18
2023-01-20T20:49:59.229Z,6.30
2023-01-20T20:52:31.496Z,5.88
2023-01-20T20:55:03.902Z,6.10
2023-01-20T20:57:35.828Z,5.72
2023-01-20T21:00:09.550Z,7.10
2023-01-20T21:02:43.439Z,4.93
2023-01-20T21:05:17.112Z,5.65
2023-01-20T21:07:50.613Z,4.90
2023-01-20T21:10:23.062Z,5.38
2023-01-20T21:12:55.538Z,5.35
2023-01-20T21:15:27.839Z,5.05
2023-01-20T21:18:01.571Z,5.00
2023-01-20T21:20:33.864Z,4.50
2023-01-20T21:23:06.832Z,4.95
2023-01-20T21:25:38.677Z,4.78
2023-01-20T21:28:13.737Z,5.18
2023-01-20T21:30:46.080Z,5.45
2023-01-20T21:33:42.402Z,4.83
2023-01-20T21:36:15.002Z,4.60
2023-01-20T21:38:47.296Z,5.10
2023-01-20T21:41:20.171Z,5.20
2023-01-20T21:44:11.015Z,5.65
2023-01-20T21:46:42.955Z,6.03
2023-01-20T21:49:34.161Z,4.95
2023-01-20T21:52:24.743Z,5.22
2023-01-20T21:54:57.098Z,5.45
2023-01-20T21:57:29.386Z,6.68
2023-01-20T22:00:04.728Z,5.20
2023-01-20T22:02:47.449Z,4.88
2023-01-20T22:05:20.535Z,5.68
2023-01-20T22:07:52.441Z,4.93
2023-01-20T22:10:25.114Z,4.85
2023-01-20T22:12:57.395Z,5.17
2023-01-20T22:15:30.476Z,4.78
2023-01-20T22:18:02.770Z,5.18
2023-01-20T22:20:34.883Z,4.55
2023-01-20T22:23:08.014Z,4.20
2023-01-20T22:25:40.031Z,4.80
2023-01-20T22:28:12.739Z,4.40
2023-01-20T22:30:47.683Z,4.18
2023-01-20T22:33:20.457Z,4.30
2023-01-20T22:35:54.876Z,4.90
2023-01-20T22:38:27.331Z,4.20
2023-01-20T22:41:09.460Z,4.05
2023-01-20T22:43:43.968Z,4.75
2023-01-20T22:46:19.594Z,4.20
2023-01-20T22:48:53.824Z,4.20
2023-01-20T22:51:29.658Z,3.80
2023-01-20T22:54:02.048Z,4.13
2023-01-20T22:56:34.910Z,4.38
2023-01-20T22:59:07.108Z,5.20
2023-01-20T23:01:39.899Z,4.13
2023-01-20T23:04:12.182Z,4.50
2023-01-20T23:06:44.916Z,4.88
2023-01-20T23:09:16.814Z,4.35
2023-01-20T23:11:49.881Z,4.03
2023-01-20T23:14:42.065Z,4.80
2023-01-20T23:17:14.797Z,4.07
2023-01-20T23:19:47.106Z,3.35
2023-01-20T23:22:20.255Z,3.72
2023-01-20T23:24:52.147Z,3.53
2023-01-20T23:27:24.856Z,3.03
2023-01-20T23:29:56.859Z,3.87
2023-01-20T23:32:29.540Z,3.30
2023-01-20T23:35:01.867Z,3.92
2023-01-20T23:37:34.140Z,3.40
2023-01-20T23:40:06.649Z,3.88
2023-01-20T23:42:39.045Z,3.27
2023-01-20T23:45:12.449Z,3.58
2023-01-20T23:47:44.407Z,3.83
2023-01-20T23:50:17.859Z,3.78
2023-01-20T23:52:49.911Z,3.90
2023-01-20T23:55:22.692Z,3.60
2023-01-20T23:57:55.398Z,3.85
